createdAt,value
2022-10-23T04:30:41.488Z,99.99
2022-10-23T04:31:41.367Z,99.93
2022-10-23T04:32:41.255Z,99.83
2022-10-23T04:33:41.231Z,99.93
2022-10-23T04:34:41.232Z,99.83
2022-10-23T04:35:41.199Z,99.93
2022-10-23T04:36:41.251Z,99.83
2022-10-23T04:37:41.642Z,99.99
2022-10-23T04:38:41.158Z,99.83
2022-10-23T04:39:41.150Z,99.99
2022-10-23T04:40:41.147Z,99.93
2022-10-23T04:41:41.179Z,99.99
2022-10-23T04:42:41.530Z,99.73
2022-10-23T04:43:41.116Z,99.52
2022-10-23T04:44:41.104Z,99.93
2022-10-23T04:45:41.110Z,99.93
2022-10-23T04:46:41.147Z,99.99
2022-10-23T04:47:41.103Z,99.63
2022-10-23T04:48:41.241Z,99.38
2022-10-23T04:49:41.068Z,99.22
2022-10-23T04:50:41.080Z,99.11
2022-10-23T04:51:41.064Z,99.42
2022-10-23T04:52:41.295Z,99.52
2022-10-23T04:53:41.054Z,99.42
2022-10-23T04:54:41.057Z,99.22
2022-10-23T04:55:40.973Z,99.27
2022-10-23T04:56:40.982Z,98.86
2022-10-23T04:57:40.978Z,98.81
2022-10-23T04:58:40.942Z,98.71
2022-10-23T04:59:40.934Z,99.22
2022-10-23T05:00:41.030Z,99.02
2022-10-23T05:01:40.955Z,99.11
2022-10-23T05:02:41.180Z,99.11
2022-10-23T05:03:40.899Z,98.91
2022-10-23T05:04:40.875Z,99.42
2022-10-23T05:05:40.890Z,99.42
2022-10-23T05:06:40.906Z,99.22
2022-10-23T05:07:41.129Z,99.22
2022-10-23T05:08:40.831Z,99.22
2022-10-23T05:09:40.826Z,99.11
2022-10-23T05:10:40.808Z,98.91
2022-10-23T05:11:40.800Z,98.81
2022-10-23T05:12:40.833Z,98.71
2022-10-23T05:13:40.791Z,99.11
2022-10-23T05:14:40.807Z,99.02
2022-10-23T05:15:40.810Z,99.32
2022-10-23T05:16:40.744Z,99.11
2022-10-23T05:17:40.918Z,98.91
2022-10-23T05:18:40.851Z,98.91
2022-10-23T05:19:40.773Z,99.32
2022-10-23T05:20:40.923Z,99.02
2022-10-23T05:21:40.836Z,99.32
2022-10-23T05:22:41.016Z,99.52
2022-10-23T05:23:40.684Z,99.42
2022-10-23T05:24:40.673Z,99.22
2022-10-23T05:25:40.674Z,99.22
2022-10-23T05:26:40.637Z,99.22
2022-10-23T05:27:40.956Z,99.22
2022-10-23T05:28:40.633Z,99.02
2022-10-23T05:29:40.593Z,99.42
2022-10-23T05:30:40.597Z,99.22
2022-10-23T05:31:40.577Z,98.71
2022-10-23T05:32:40.936Z,98.91
2022-10-23T05:33:40.595Z,99.02
2022-10-23T05:34:40.557Z,99.02
2022-10-23T05:35:40.554Z,98.91
2022-10-23T05:36:40.519Z,98.81
2022-10-23T05:37:40.546Z,98.71
2022-10-23T05:38:40.490Z,98.71
2022-10-23T05:39:40.512Z,98.50
2022-10-23T05:40:40.482Z,98.61
2022-10-23T05:41:40.478Z,98.41
2022-10-23T05:42:41.706Z,98.50
2022-10-23T05:43:40.440Z,98.50
2022-10-23T05:44:40.427Z,98.71
2022-10-23T05:45:40.443Z,98.41
2022-10-23T05:46:40.403Z,98.41
2022-10-23T05:47:40.419Z,98.71
2022-10-23T05:48:40.382Z,98.71
2022-10-23T05:49:40.369Z,98.50
2022-10-23T05:50:40.374Z,98.81
2022-10-23T05:51:40.372Z,98.41
2022-10-23T05:52:40.565Z,98.50
2022-10-23T05:53:42.460Z,98.20
2022-10-23T05:54:40.315Z,98.00
2022-10-23T05:55:40.318Z,97.89
2022-10-23T05:56:40.310Z,97.80
2022-10-23T05:57:40.435Z,97.89
2022-10-23T05:58:40.291Z,98.10
2022-10-23T05:59:40.258Z,97.80
2022-10-23T06:00:40.241Z,97.60
2022-10-23T06:01:40.416Z,98.10
2022-10-23T06:02:40.372Z,97.89
2022-10-23T06:03:40.249Z,98.20
2022-10-23T06:04:40.203Z,98.20
2022-10-23T06:06:40.210Z,98.20
2022-10-23T06:07:40.170Z,98.00
2022-10-23T06:08:40.152Z,97.94
2022-10-23T06:09:40.185Z,98.00
2022-10-23T06:10:40.130Z,98.30
2022-10-23T06:11:40.143Z,98.00
2022-10-23T06:12:40.114Z,98.10
2022-10-23T06:13:40.104Z,98.14
2022-10-23T06:14:40.087Z,98.00
2022-10-23T06:15:40.136Z,98.00
2022-10-23T06:16:40.066Z,98.20
2022-10-23T06:17:40.152Z,98.00
2022-10-23T06:18:40.046Z,98.20
2022-10-23T06:19:40.028Z,97.80
2022-10-23T06:20:40.039Z,97.89
2022-10-23T06:21:40.048Z,97.60
2022-10-23T06:22:40.604Z,97.74
2022-10-23T06:23:41.028Z,97.39
2022-10-23T06:24:46.977Z,97.39
2022-10-23T06:25:40.204Z,97.39
2022-10-23T06:26:39.962Z,97.49
2022-10-23T06:27:40.896Z,97.29
2022-10-23T06:28:39.953Z,97.60
2022-10-23T06:29:40.234Z,97.49
2022-10-23T06:30:39.919Z,97.60
2022-10-23T06:31:40.156Z,97.39
2022-10-23T06:32:40.128Z,97.19
2022-10-23T06:33:40.322Z,97.29
2022-10-23T06:34:39.946Z,97.19
2022-10-23T06:35:39.899Z,96.58
2022-10-23T06:36:39.848Z,96.88
2022-10-23T06:37:39.839Z,96.88
2022-10-23T06:38:39.845Z,96.98
2022-10-23T06:39:39.821Z,97.19
2022-10-23T06:40:39.808Z,97.08
2022-10-23T06:41:39.811Z,96.88
2022-10-23T06:42:39.880Z,97.29
2022-10-23T06:43:39.765Z,96.58
2022-10-23T06:44:39.805Z,96.58
2022-10-23T06:45:39.733Z,96.68
2022-10-23T06:46:39.801Z,96.78
2022-10-23T06:47:39.911Z,96.78
2022-10-23T06:48:39.699Z,96.58
2022-10-23T06:49:39.761Z,96.47
2022-10-23T06:50:39.673Z,96.78
2022-10-23T06:51:39.691Z,96.83
2022-10-23T06:52:47.049Z,96.83
2022-10-23T06:53:40.650Z,96.63
2022-10-23T06:54:39.651Z,96.12
2022-10-23T06:55:39.654Z,96.23
2022-10-23T06:56:39.660Z,96.53
2022-10-23T06:57:39.599Z,95.92
2022-10-23T06:58:39.617Z,96.33
2022-10-23T06:59:39.583Z,95.82
2022-10-23T07:00:39.679Z,95.82
2022-10-23T07:01:39.893Z,95.62
2022-10-23T07:02:39.812Z,95.62
2022-10-23T07:03:39.535Z,95.51
2022-10-23T07:04:39.558Z,95.51
2022-10-23T07:05:39.513Z,95.01
2022-10-23T07:06:39.515Z,95.01
2022-10-23T07:07:39.513Z,94.96
2022-10-23T07:08:39.493Z,95.10
2022-10-23T07:09:39.471Z,95.21
2022-10-23T07:10:39.499Z,95.26
2022-10-23T07:11:39.449Z,96.38
2022-10-23T07:12:39.472Z,95.37
2022-10-23T07:13:39.436Z,94.86
2022-10-23T07:14:39.438Z,94.76
2022-10-23T07:15:39.411Z,95.06
2022-10-23T07:16:39.468Z,94.66
2022-10-23T07:17:39.380Z,94.45
2022-10-23T07:18:39.369Z,94.45
2022-10-23T07:19:39.375Z,94.76
2022-10-23T07:20:39.363Z,94.45
2022-10-23T07:21:39.338Z,94.56
2022-10-23T07:22:39.358Z,94.66
2022-10-23T07:23:39.324Z,94.56
2022-10-23T07:24:39.332Z,94.61
2022-10-23T07:25:39.336Z,94.31
2022-10-23T07:26:39.390Z,93.33
2022-10-23T07:27:39.406Z,93.70
2022-10-23T07:28:39.263Z,93.90
2022-10-23T07:29:39.271Z,93.35
2022-10-23T07:30:39.306Z,93.60
2022-10-23T07:31:39.238Z,92.99
2022-10-23T07:32:39.243Z,93.05
2022-10-23T07:33:39.207Z,93.35
2022-10-23T07:34:39.260Z,93.35
2022-10-23T07:35:39.400Z,93.15
2022-10-23T07:36:39.223Z,92.49
2022-10-23T07:37:39.167Z,92.70
2022-10-23T07:38:39.153Z,92.40
2022-10-23T07:39:39.160Z,92.09
2022-10-23T07:40:39.157Z,92.40
2022-10-23T07:41:39.119Z,92.19
2022-10-23T07:42:39.127Z,91.64
2022-10-23T07:43:39.098Z,91.48
2022-10-23T07:44:39.115Z,91.34
2022-10-23T07:45:39.089Z,91.44
2022-10-23T07:46:39.113Z,91.24
2022-10-23T07:47:39.061Z,91.54
2022-10-23T07:48:39.087Z,90.89
2022-10-23T07:49:39.031Z,90.89
2022-10-23T07:50:39.026Z,89.94
2022-10-23T07:51:39.034Z,89.43
2022-10-23T07:52:39.015Z,89.53
2022-10-23T07:53:38.996Z,88.82
2022-10-23T07:54:38.993Z,88.68
2022-10-23T07:55:39.008Z,89.18
2022-10-23T07:56:38.954Z,88.98
2022-10-23T07:57:38.938Z,88.78
2022-10-23T07:58:38.958Z,89.48
2022-10-23T07:59:38.969Z,89.18
2022-10-23T08:00:38.927Z,87.87
2022-10-23T08:01:39.119Z,88.33
2022-10-23T08:02:38.890Z,87.62
2022-10-23T08:03:38.880Z,88.33
2022-10-23T08:04:38.893Z,87.22
2022-10-23T08:05:38.936Z,87.18
2022-10-23T08:06:38.857Z,87.38
2022-10-23T08:07:38.852Z,86.93
2022-10-23T08:08:38.893Z,86.43
2022-10-23T08:09:38.840Z,87.04
2022-10-23T08:10:38.806Z,86.19
2022-10-23T08:11:38.844Z,85.48
2022-10-23T08:12:38.803Z,86.08
2022-10-23T08:13:38.765Z,85.93
2022-10-23T08:14:38.801Z,85.42
2022-10-23T08:15:38.761Z,85.22
2022-10-23T08:16:38.740Z,85.78
2022-10-23T08:17:38.732Z,86.19
2022-10-23T08:18:38.737Z,85.99
2022-10-23T08:19:38.725Z,85.88
2022-10-23T08:20:38.724Z,85.58
2022-10-23T08:21:38.689Z,85.88
2022-10-23T08:22:38.674Z,85.03
2022-10-23T08:23:38.682Z,84.73
2022-10-23T08:24:38.683Z,84.53
2022-10-23T08:25:38.643Z,84.73
2022-10-23T08:26:38.646Z,83.88
2022-10-23T08:27:38.620Z,84.29
2022-10-23T08:28:38.678Z,83.98
2022-10-23T08:29:38.602Z,83.84
2022-10-23T08:30:38.823Z,83.40
2022-10-23T08:31:38.654Z,82.59
2022-10-23T08:32:38.620Z,82.29
2022-10-23T08:33:38.692Z,82.09
2022-10-23T08:34:38.599Z,82.90
2022-10-23T08:35:38.534Z,83.04
2022-10-23T08:36:38.552Z,82.73
2022-10-23T08:37:38.634Z,82.53
2022-10-23T08:38:38.523Z,82.23
2022-10-23T08:39:38.482Z,82.84
2022-10-23T08:40:38.480Z,82.33
2022-10-23T08:41:38.480Z,82.33
2022-10-23T08:42:38.522Z,82.53
2022-10-23T08:43:38.489Z,82.70
2022-10-23T08:44:38.424Z,83.10
2022-10-23T08:45:38.447Z,81.79
2022-10-23T08:46:38.420Z,81.99
2022-10-23T08:47:38.406Z,82.39
2022-10-23T08:48:38.412Z,81.95
2022-10-23T08:49:38.407Z,82.86
2022-10-23T08:50:38.365Z,81.71
2022-10-23T08:51:38.419Z,81.30
2022-10-23T08:52:38.340Z,81.10
2022-10-23T08:53:38.347Z,80.70
2022-10-23T08:54:38.330Z,81.10
2022-10-23T08:55:38.335Z,81.35
2022-10-23T08:56:38.319Z,81.55
2022-10-23T08:57:41.350Z,81.35
2022-10-23T08:58:39.298Z,81.18
2022-10-23T08:59:38.270Z,81.79
2022-10-23T09:00:38.350Z,81.85
2022-10-23T09:01:38.361Z,81.15
2022-10-23T09:02:38.258Z,81.85
2022-10-23T09:03:38.234Z,81.91
2022-10-23T09:04:38.210Z,81.35
2022-10-23T09:05:38.220Z,81.71
2022-10-23T09:06:38.191Z,80.70
2022-10-23T09:07:38.191Z,81.30
2022-10-23T09:08:38.195Z,81.30
2022-10-23T09:09:38.153Z,80.77
2022-10-23T09:10:38.146Z,80.36
2022-10-23T09:11:38.138Z,79.66
2022-10-23T09:12:38.242Z,80.30
2022-10-23T09:13:38.139Z,80.90
2022-10-23T09:14:38.120Z,81.07
2022-10-23T09:15:38.111Z,80.06
2022-10-23T09:16:38.094Z,79.80
2022-10-23T09:17:38.066Z,80.60
2022-10-23T09:18:38.092Z,81.15
2022-10-23T09:19:38.048Z,81.95
2022-10-23T09:20:38.044Z,81.35
2022-10-23T09:21:38.095Z,81.59
2022-10-23T09:22:38.022Z,81.08
2022-10-23T09:23:38.012Z,81.89
2022-10-23T09:24:38.018Z,82.59
2022-10-23T09:25:37.986Z,82.73
2022-10-23T09:26:37.970Z,82.70
2022-10-23T09:27:38.063Z,81.82
2022-10-23T09:28:37.950Z,82.64
2022-10-23T09:29:37.951Z,82.73
2022-10-23T09:30:37.942Z,82.53
2022-10-23T09:31:37.921Z,82.47
2022-10-23T09:32:37.901Z,82.27
2022-10-23T09:33:37.949Z,83.12
2022-10-23T09:34:37.905Z,83.42
2022-10-23T09:35:37.868Z,84.12
2022-10-23T09:36:37.865Z,83.72
2022-10-23T09:37:37.869Z,84.12
2022-10-23T09:38:37.847Z,84.43
2022-10-23T09:39:37.854Z,84.43
2022-10-23T09:40:37.819Z,84.53
2022-10-23T09:41:37.807Z,84.73
2022-10-23T09:42:37.839Z,84.63
2022-10-23T09:43:37.792Z,84.12
2022-10-23T09:44:37.776Z,84.23
2022-10-23T09:45:37.784Z,84.12
2022-10-23T09:46:37.818Z,84.53
2022-10-23T09:47:37.775Z,84.53
2022-10-23T09:48:37.726Z,84.43
2022-10-23T09:49:37.727Z,84.53
2022-10-23T09:50:37.733Z,84.63
2022-10-23T09:51:37.755Z,85.28
2022-10-23T09:52:37.705Z,84.73
2022-10-23T09:53:37.681Z,84.63
2022-10-23T09:54:37.672Z,84.73
2022-10-23T09:55:37.666Z,86.15
2022-10-23T09:56:37.706Z,86.04
2022-10-23T09:57:37.671Z,84.53
2022-10-23T09:58:37.649Z,84.09
2022-10-23T09:59:37.612Z,84.15
2022-10-23T10:00:37.626Z,84.65
2022-10-23T10:01:37.748Z,84.05
2022-10-23T10:02:37.578Z,83.95
2022-10-23T10:03:37.629Z,83.14
2022-10-23T10:04:37.578Z,84.05
2022-10-23T10:05:37.600Z,83.84
2022-10-23T10:06:37.635Z,83.58
2022-10-23T10:07:37.534Z,84.09
2022-10-23T10:08:37.552Z,83.78
2022-10-23T10:09:37.539Z,84.39
2022-10-23T10:10:37.532Z,83.58
2022-10-23T10:11:37.502Z,84.49
2022-10-23T10:12:37.487Z,84.49
2022-10-23T10:13:37.488Z,84.19
2022-10-23T10:14:37.452Z,84.43
2022-10-23T10:15:37.515Z,84.53
2022-10-23T10:16:37.483Z,84.63
2022-10-23T10:17:37.434Z,84.73
2022-10-23T10:18:37.411Z,84.83
2022-10-23T10:19:37.411Z,84.53
2022-10-23T10:20:37.414Z,84.73
2022-10-23T10:21:37.375Z,83.72
2022-10-23T10:22:37.394Z,84.57
2022-10-23T10:23:37.344Z,84.73
2022-10-23T10:24:37.365Z,84.83
2022-10-23T10:25:37.317Z,84.47
2022-10-23T10:26:37.328Z,84.63
2022-10-23T10:27:37.301Z,84.17
2022-10-23T10:28:37.312Z,84.67
2022-10-23T10:29:37.276Z,85.38
2022-10-23T10:30:37.266Z,85.08
2022-10-23T10:31:37.250Z,85.99
2022-10-23T10:32:37.294Z,84.97
2022-10-23T10:33:37.255Z,84.87
2022-10-23T10:34:37.214Z,84.97
2022-10-23T10:35:37.205Z,85.17
2022-10-23T10:36:37.228Z,85.99
2022-10-23T10:37:37.188Z,85.42
2022-10-23T10:38:37.223Z,85.88
2022-10-23T10:39:37.192Z,85.99
2022-10-23T10:40:37.163Z,86.19
2022-10-23T10:41:37.141Z,86.19
2022-10-23T10:42:37.141Z,86.08
2022-10-23T10:43:37.117Z,86.19
2022-10-23T10:44:37.178Z,85.82
2022-10-23T10:45:37.120Z,85.78
2022-10-23T10:46:37.086Z,86.22
2022-10-23T10:47:37.074Z,86.08
2022-10-23T10:48:37.074Z,86.08
2022-10-23T10:49:37.072Z,85.78
2022-10-23T10:50:37.063Z,86.22
2022-10-23T10:51:37.045Z,85.88
2022-10-23T10:52:37.019Z,86.02
2022-10-23T10:53:37.001Z,86.83
2022-10-23T10:54:37.066Z,86.93
2022-10-23T10:55:36.983Z,87.24
2022-10-23T10:56:36.993Z,87.24
2022-10-23T10:57:36.976Z,86.73
2022-10-23T10:58:36.966Z,86.43
2022-10-23T10:59:36.942Z,86.37
2022-10-23T11:00:36.982Z,87.04
2022-10-23T11:01:37.061Z,87.13
2022-10-23T11:02:36.955Z,86.93
2022-10-23T11:03:39.885Z,86.83
2022-10-23T11:04:36.935Z,87.13
2022-10-23T11:05:36.894Z,86.87
2022-10-23T11:06:36.873Z,86.87
2022-10-23T11:07:36.864Z,87.95
2022-10-23T11:08:49.766Z,87.74
2022-10-23T11:09:37.868Z,87.99
2022-10-23T11:10:36.839Z,88.65
2022-10-23T11:11:36.835Z,87.79
2022-10-23T11:12:36.795Z,87.99
2022-10-23T11:13:36.805Z,87.68
2022-10-23T11:14:36.833Z,87.99
2022-10-23T11:15:36.781Z,88.39
2022-10-23T11:16:36.755Z,88.29
2022-10-23T11:17:36.738Z,88.90
2022-10-23T11:18:36.732Z,88.79
2022-10-23T11:19:36.721Z,87.68
2022-10-23T11:20:36.738Z,88.09
2022-10-23T11:21:36.722Z,87.95
2022-10-23T11:22:36.687Z,87.64
2022-10-23T11:23:36.678Z,87.64
2022-10-23T11:24:36.701Z,86.93
2022-10-23T11:25:36.653Z,87.34
2022-10-23T11:26:36.675Z,86.93
2022-10-23T11:27:36.630Z,87.44
2022-10-23T11:28:36.630Z,88.04
2022-10-23T11:29:36.610Z,87.81
2022-10-23T11:30:36.614Z,87.10
2022-10-23T11:31:36.617Z,86.79
2022-10-23T11:32:36.640Z,86.69
2022-10-23T11:33:37.651Z,86.59
2022-10-23T11:34:36.559Z,86.08
2022-10-23T11:35:36.550Z,86.04
2022-10-23T11:36:36.570Z,86.25
2022-10-23T11:37:36.531Z,86.04
2022-10-23T11:38:36.588Z,85.64
2022-10-23T11:39:36.514Z,86.25
2022-10-23T11:40:36.499Z,86.04
2022-10-23T11:41:36.484Z,85.84
2022-10-23T11:42:36.491Z,85.74
2022-10-23T11:43:36.492Z,84.69
2022-10-23T11:44:36.478Z,85.14
2022-10-23T11:45:36.428Z,84.99
2022-10-23T11:46:36.442Z,84.79
2022-10-23T11:47:39.573Z,85.10
2022-10-23T11:48:36.420Z,85.30
2022-10-23T11:49:36.420Z,86.10
2022-10-23T11:50:36.477Z,86.10
2022-10-23T11:51:36.366Z,84.99
2022-10-23T11:52:45.478Z,85.19
2022-10-23T11:53:37.371Z,84.65
2022-10-23T11:54:36.363Z,84.49
2022-10-23T11:55:36.360Z,84.79
2022-10-23T11:56:36.323Z,85.25
2022-10-23T11:57:36.305Z,84.59
2022-10-23T11:58:36.326Z,85.19
2022-10-23T11:59:36.297Z,84.99
2022-10-23T12:00:36.266Z,84.79
2022-10-23T12:01:36.422Z,85.10
2022-10-23T12:02:36.311Z,85.30
2022-10-23T12:03:36.260Z,85.80
2022-10-23T12:04:36.242Z,85.40
2022-10-23T12:05:36.217Z,85.25
2022-10-23T12:06:36.215Z,85.25
2022-10-23T12:07:36.255Z,84.75
2022-10-23T12:08:36.179Z,84.09
2022-10-23T12:09:36.206Z,84.95
2022-10-23T12:10:36.171Z,85.05
2022-10-23T12:11:36.139Z,86.16
2022-10-23T12:12:36.128Z,84.65
2022-10-23T12:13:36.197Z,84.11
2022-10-23T12:14:36.150Z,84.31
2022-10-23T12:15:36.102Z,84.61
2022-10-23T12:16:36.104Z,84.61
2022-10-23T12:17:36.083Z,84.71
2022-10-23T12:18:36.095Z,83.50
2022-10-23T12:19:36.148Z,84.31
2022-10-23T12:20:36.051Z,84.31
2022-10-23T12:21:36.039Z,84.71
2022-10-23T12:22:36.035Z,84.41
2022-10-23T12:23:36.006Z,84.21
2022-10-23T12:24:36.003Z,84.71
2022-10-23T12:25:36.049Z,83.70
2022-10-23T12:26:36.007Z,84.31
2022-10-23T12:27:35.970Z,84.31
2022-10-23T12:28:35.969Z,84.31
2022-10-23T12:29:35.957Z,84.57
2022-10-23T12:30:35.956Z,84.71
2022-10-23T12:31:35.974Z,84.61
2022-10-23T12:32:35.930Z,84.71
2022-10-23T12:33:35.910Z,84.51
2022-10-23T12:34:35.901Z,84.31
2022-10-23T12:35:35.904Z,84.21
2022-10-23T12:36:35.889Z,84.31
2022-10-23T12:37:35.941Z,84.41
2022-10-23T12:38:36.528Z,84.91
2022-10-23T12:39:35.839Z,84.47
2022-10-23T12:40:36.002Z,84.77
2022-10-23T12:41:35.816Z,84.37
2022-10-23T12:42:35.806Z,84.47
2022-10-23T12:43:35.879Z,84.37
2022-10-23T12:44:35.790Z,84.57
2022-10-23T12:45:35.773Z,84.17
2022-10-23T12:46:35.807Z,84.57
2022-10-23T12:47:35.812Z,84.47
2022-10-23T12:48:35.754Z,85.17
2022-10-23T12:49:35.833Z,84.57
2022-10-23T12:50:35.744Z,84.77
2022-10-23T12:51:35.713Z,84.97
2022-10-23T12:52:35.708Z,84.97
2022-10-23T12:53:35.737Z,85.08
2022-10-23T12:54:35.673Z,85.08
2022-10-23T12:55:36.154Z,84.27
2022-10-23T12:56:35.668Z,83.97
2022-10-23T12:57:35.656Z,84.77
2022-10-23T12:58:35.635Z,84.37
2022-10-23T12:59:35.664Z,84.67
2022-10-23T13:00:35.628Z,84.37
2022-10-23T13:01:36.976Z,84.88
2022-10-23T13:02:35.740Z,84.57
2022-10-23T13:03:35.590Z,84.27
2022-10-23T13:04:35.616Z,84.97
2022-10-23T13:05:35.600Z,84.57
2022-10-23T13:06:35.588Z,84.97
2022-10-23T13:07:35.554Z,84.77
2022-10-23T13:08:35.557Z,85.68
2022-10-23T13:09:35.511Z,86.18
2022-10-23T13:10:35.500Z,84.47
2022-10-23T13:11:35.489Z,85.28
2022-10-23T13:12:35.581Z,84.97
2022-10-23T13:13:35.492Z,84.97
2022-10-23T13:14:38.211Z,84.88
2022-10-23T13:15:36.445Z,84.23
2022-10-23T13:16:35.442Z,84.57
2022-10-23T13:17:35.503Z,84.17
2022-10-23T13:18:35.430Z,84.57
2022-10-23T13:19:35.411Z,84.94
2022-10-23T13:20:35.409Z,85.74
2022-10-23T13:21:35.378Z,85.84
2022-10-23T13:22:35.379Z,85.24
2022-10-23T13:23:35.401Z,84.43
2022-10-23T13:24:35.378Z,84.53
2022-10-23T13:25:35.373Z,84.83
2022-10-23T13:26:35.345Z,84.43
2022-10-23T13:27:35.362Z,84.63
2022-10-23T13:28:35.327Z,85.14
2022-10-23T13:29:35.329Z,84.13
2022-10-23T13:30:35.314Z,84.94
2022-10-23T13:31:35.287Z,84.63
2022-10-23T13:32:35.262Z,84.23
2022-10-23T13:33:35.286Z,84.80
2022-10-23T13:34:35.255Z,85.00
2022-10-23T13:35:35.246Z,84.89
2022-10-23T13:36:35.246Z,85.10
2022-10-23T13:37:35.256Z,85.64
2022-10-23T13:38:35.222Z,85.30
2022-10-23T13:39:35.200Z,84.69
2022-10-23T13:40:35.182Z,85.00
2022-10-23T13:41:35.191Z,85.20
2022-10-23T13:42:35.222Z,84.89
2022-10-23T13:43:35.143Z,85.10
2022-10-23T13:44:35.150Z,84.49
2022-10-23T13:45:35.128Z,84.59
2022-10-23T13:46:35.125Z,84.80
2022-10-23T13:47:35.102Z,85.30
2022-10-23T13:48:35.139Z,85.70
2022-10-23T13:49:35.126Z,85.80
2022-10-23T13:50:35.084Z,85.80
2022-10-23T13:51:38.758Z,85.00
2022-10-23T13:52:36.043Z,85.70
2022-10-23T13:53:35.029Z,85.80
2022-10-23T13:54:35.087Z,85.40
2022-10-23T13:55:35.009Z,85.60
2022-10-23T13:56:35.012Z,85.10
2022-10-23T13:57:34.994Z,85.60
2022-10-23T13:58:34.981Z,85.60
2022-10-23T13:59:34.969Z,85.80
2022-10-23T14:00:35.009Z,85.10
2022-10-23T14:01:35.062Z,85.50
2022-10-23T14:02:34.987Z,86.00
2022-10-23T14:03:34.927Z,85.60
2022-10-23T14:04:34.919Z,85.90
2022-10-23T14:05:34.909Z,85.50
2022-10-23T14:06:34.964Z,85.70
2022-10-23T14:07:34.882Z,85.50
2022-10-23T14:08:34.895Z,85.80
2022-10-23T14:09:34.862Z,86.00
2022-10-23T14:10:34.851Z,85.80
2022-10-23T14:11:34.877Z,85.20
2022-10-23T14:12:34.852Z,85.60
2022-10-23T14:13:34.864Z,85.40
2022-10-23T14:14:34.827Z,85.80
2022-10-23T14:15:34.818Z,85.90
2022-10-23T14:16:34.783Z,85.50
2022-10-23T14:17:34.770Z,85.40
2022-10-23T14:18:34.802Z,85.80
2022-10-23T14:19:34.759Z,85.60
2022-10-23T14:20:34.768Z,85.50
2022-10-23T14:21:34.739Z,85.50
2022-10-23T14:22:34.741Z,85.60
2022-10-23T14:23:34.706Z,86.10
2022-10-23T14:24:34.724Z,85.60
2022-10-23T14:25:34.689Z,86.00
2022-10-23T14:26:34.693Z,86.00
2022-10-23T14:27:34.682Z,85.50
2022-10-23T14:28:34.653Z,85.40
2022-10-23T14:29:34.665Z,85.94
2022-10-23T14:30:34.667Z,85.84
2022-10-23T14:31:34.623Z,85.50
2022-10-23T14:32:34.613Z,85.60
2022-10-23T14:33:34.607Z,85.50
2022-10-23T14:34:34.609Z,85.74
2022-10-23T14:35:34.619Z,85.54
2022-10-23T14:36:43.619Z,85.64
2022-10-23T14:37:35.551Z,85.20
2022-10-23T14:38:34.594Z,85.94
2022-10-23T14:39:34.564Z,86.00
2022-10-23T14:40:34.556Z,85.60
2022-10-23T14:41:34.541Z,85.54
2022-10-23T14:42:34.510Z,85.50
2022-10-23T14:43:34.532Z,85.94
2022-10-23T14:44:34.582Z,86.04
2022-10-23T14:45:34.472Z,86.04
2022-10-23T14:46:34.502Z,85.80
2022-10-23T14:47:34.463Z,85.90
2022-10-23T14:48:34.479Z,85.40
2022-10-23T14:49:34.423Z,85.64
2022-10-23T14:50:34.412Z,85.80
2022-10-23T14:51:34.402Z,85.90
2022-10-23T14:52:34.392Z,85.84
2022-10-23T14:53:34.423Z,85.84
2022-10-23T14:54:34.399Z,85.84
2022-10-23T14:55:34.376Z,86.55
2022-10-23T14:56:34.347Z,86.55
2022-10-23T14:57:34.329Z,86.51
2022-10-23T14:58:34.354Z,86.35
2022-10-23T14:59:34.391Z,86.44
2022-10-23T15:00:34.304Z,86.15
2022-10-23T15:01:34.471Z,86.21
2022-10-23T15:02:34.287Z,86.85
2022-10-23T15:03:34.278Z,86.65
2022-10-23T15:04:34.255Z,86.30
2022-10-23T15:05:34.321Z,86.61
2022-10-23T15:06:34.269Z,86.51
2022-10-23T15:07:34.243Z,86.51
2022-10-23T15:08:34.205Z,85.90
2022-10-23T15:09:34.198Z,86.21
2022-10-23T15:10:34.212Z,86.65
2022-10-23T15:11:34.197Z,86.55
2022-10-23T15:12:34.185Z,86.55
2022-10-23T15:13:34.157Z,86.44
2022-10-23T15:14:34.148Z,87.05
2022-10-23T15:15:34.140Z,86.85
2022-10-23T15:16:34.420Z,86.44
2022-10-23T15:17:35.345Z,86.85
2022-10-23T15:19:34.085Z,86.75
2022-10-23T15:20:34.076Z,86.44
2022-10-23T15:21:34.216Z,86.85
2022-10-23T15:22:34.075Z,86.95
2022-10-23T15:23:34.848Z,87.05
2022-10-23T15:24:34.054Z,86.95
2022-10-23T15:25:34.086Z,87.05
2022-10-23T15:26:34.037Z,86.95
2022-10-23T15:27:34.031Z,86.95
2022-10-23T15:28:33.993Z,86.95
2022-10-23T15:29:34.035Z,87.15
2022-10-23T15:30:33.997Z,86.95
2022-10-23T15:31:36.892Z,86.95
2022-10-23T15:32:34.919Z,86.95
2022-10-23T15:33:34.883Z,86.75
2022-10-23T15:34:33.939Z,86.95
2022-10-23T15:35:34.897Z,86.75
2022-10-23T15:36:33.988Z,87.35
2022-10-23T15:37:33.896Z,86.55
2022-10-23T15:38:34.851Z,86.65
2022-10-23T15:39:33.948Z,86.65
2022-10-23T15:40:34.016Z,86.65
2022-10-23T15:41:33.912Z,86.95
2022-10-23T15:42:35.437Z,87.05
2022-10-23T15:43:33.855Z,86.91
2022-10-23T15:44:34.395Z,86.75
2022-10-23T15:45:33.825Z,86.95
2022-10-23T15:46:33.792Z,86.55
2022-10-23T15:47:33.854Z,86.44
2022-10-23T15:48:33.779Z,86.85
2022-10-23T15:49:34.346Z,86.65
2022-10-23T15:50:33.763Z,86.85
2022-10-23T15:51:34.348Z,86.85
2022-10-23T15:52:33.754Z,86.75
2022-10-23T15:53:33.759Z,86.55
2022-10-23T15:54:34.355Z,87.25
2022-10-23T15:55:33.755Z,87.35
2022-10-23T15:56:33.691Z,86.75
2022-10-23T15:57:33.674Z,86.85
2022-10-23T15:58:33.689Z,86.75
2022-10-23T15:59:34.449Z,86.75
2022-10-23T16:01:33.702Z,86.55
2022-10-23T16:02:33.794Z,87.35
2022-10-23T16:03:33.626Z,86.75
2022-10-23T16:04:33.640Z,86.95
2022-10-23T16:05:34.415Z,86.35
2022-10-23T16:06:33.629Z,86.44
2022-10-23T16:07:34.387Z,86.55
2022-10-23T16:08:34.343Z,86.85
2022-10-23T16:09:33.543Z,86.95
2022-10-23T16:10:33.539Z,87.65
2022-10-23T16:11:33.573Z,87.65
2022-10-23T16:12:33.513Z,87.65
2022-10-23T16:13:33.499Z,87.05
2022-10-23T16:14:33.539Z,87.45
2022-10-23T16:15:34.349Z,86.95
2022-10-23T16:16:33.489Z,87.55
2022-10-23T16:17:34.365Z,86.95
2022-10-23T16:18:34.341Z,86.85
2022-10-23T16:19:33.454Z,86.85
2022-10-23T16:20:33.418Z,87.35
2022-10-23T16:21:33.413Z,87.96
2022-10-23T16:22:33.440Z,86.85
2022-10-23T16:23:33.410Z,87.25
2022-10-23T16:24:33.415Z,87.15
2022-10-23T16:26:33.365Z,87.55
2022-10-23T16:27:33.371Z,87.45
2022-10-23T16:28:33.332Z,87.55
2022-10-23T16:29:33.340Z,87.45
2022-10-23T16:30:33.381Z,87.85
2022-10-23T16:31:33.314Z,87.96
2022-10-23T16:32:33.302Z,88.76
2022-10-23T16:33:33.316Z,88.46
2022-10-23T16:34:33.282Z,89.06
2022-10-23T16:35:33.267Z,88.50
2022-10-23T16:36:33.282Z,89.06
2022-10-23T16:37:33.254Z,89.21
2022-10-23T16:38:33.235Z,88.70
2022-10-23T16:39:33.363Z,89.11
2022-10-23T16:40:33.231Z,89.51
2022-10-23T16:41:33.201Z,89.91
2022-10-23T16:42:33.237Z,90.01
2022-10-23T16:43:33.196Z,90.42
2022-10-23T16:44:33.164Z,90.92
2022-10-23T16:45:35.663Z,91.02
2022-10-23T16:46:33.198Z,90.22
2022-10-23T16:47:33.125Z,90.01
2022-10-23T16:48:33.116Z,90.82
2022-10-23T16:49:33.125Z,91.73
2022-10-23T16:50:33.255Z,91.83
2022-10-23T16:51:33.092Z,90.77
2022-10-23T16:52:33.118Z,91.83
2022-10-23T16:53:33.082Z,92.38
2022-10-23T16:54:33.053Z,92.43
2022-10-23T16:55:33.057Z,92.38
2022-10-23T16:56:33.045Z,93.14
2022-10-23T16:57:33.019Z,93.04
2022-10-23T16:58:33.047Z,94.09
2022-10-23T16:59:32.997Z,93.89
2022-10-23T17:00:32.983Z,94.49
2022-10-23T17:01:33.238Z,94.59
2022-10-23T17:02:33.207Z,95.90
2022-10-23T17:03:32.961Z,96.31
2022-10-23T17:04:32.945Z,96.71
2022-10-23T17:05:32.936Z,97.27
2022-10-23T17:06:32.925Z,97.56
2022-10-23T17:07:32.958Z,97.97
2022-10-23T17:08:32.907Z,98.17
2022-10-23T17:09:32.922Z,98.58
2022-10-23T17:10:32.883Z,98.72
2022-10-23T17:11:32.871Z,99.43
2022-10-23T17:12:32.862Z,99.73
2022-10-23T17:13:32.903Z,99.33
2022-10-23T17:14:32.840Z,99.53
2022-10-23T17:15:32.899Z,99.84
2022-10-23T17:16:32.855Z,99.99
2022-10-23T17:17:32.815Z,99.99
2022-10-23T17:18:32.876Z,99.68
2022-10-23T17:19:44.141Z,99.99
2022-10-23T17:20:33.802Z,99.99
2022-10-23T17:21:32.770Z,99.62
2022-10-23T17:22:32.753Z,99.62
2022-10-23T17:23:32.748Z,99.62
2022-10-23T17:24:32.740Z,99.62
2022-10-23T17:25:32.718Z,99.37
2022-10-23T17:26:32.781Z,99.67